sensor_id;sensor_type;location;lat;lon;timestamp;pressure;altitude;pressure_sealevel;temperature;humidity
59650;BME280;46162;57.568;25.814;2022-12-05T00:02:00;102624.88;;;-3.43;100.00
59650;BME280;46162;57.568;25.814;2022-12-05T00:04:28;102631.88;;;-3.39;100.00
59650;BME280;46162;57.568;25.814;2022-12-05T00:06:57;102631.84;;;-3.37;100.00
59650;BME280;46162;57.568;25.814;2022-12-05T00:09:26;102628.38;;;-3.42;100.00
59650;BME280;46162;57.568;25.814;2022-12-05T00:11:55;102622.13;;;-3.31;100.00
59650;BME280;46162;57.568;25.814;2022-12-05T00:14:25;102619.69;;;-3.52;100.00
59650;BME280;46162;57.568;25.814;2022-12-05T00:16:53;102619.44;;;-3.28;100.00
59650;BME280;46162;57.568;25.814;2022-12-05T00:19:22;102616.84;;;-3.32;100.00
59650;BME280;46162;57.568;25.814;2022-12-05T00:21:50;102616.00;;;-3.36;100.00
59650;BME280;46162;57.568;25.814;2022-12-05T00:24:19;102624.63;;;-3.21;100.00
59650;BME280;46162;57.568;25.814;2022-12-05T00:26:48;102617.56;;;-3.16;100.00
59650;BME280;46162;57.568;25.814;2022-12-05T00:29:16;102615.88;;;-3.27;100.00
59650;BME280;46162;57.568;25.814;2022-12-05T00:31:46;102605.38;;;-3.30;100.00
59650;BME280;46162;57.568;25.814;2022-12-05T00:34:15;102612.47;;;-3.36;100.00
59650;BME280;46162;57.568;25.814;2022-12-05T00:36:44;102603.63;;;-3.31;100.00
59650;BME280;46162;57.568;25.814;2022-12-05T00:39:12;102603.78;;;-3.46;100.00
59650;BME280;46162;57.568;25.814;2022-12-05T00:41:42;102601.91;;;-3.35;100.00
59650;BME280;46162;57.568;25.814;2022-12-05T00:44:11;102600.19;;;-3.40;100.00
59650;BME280;46162;57.568;25.814;2022-12-05T00:46:40;102596.69;;;-3.44;100.00
59650;BME280;46162;57.568;25.814;2022-12-05T00:49:11;102593.16;;;-3.41;100.00
59650;BME280;46162;57.568;25.814;2022-12-05T00:51:41;102587.00;;;-3.40;100.00
59650;BME280;46162;57.568;25.814;2022-12-05T00:54:11;102585.00;;;-3.20;100.00
59650;BME280;46162;57.568;25.814;2022-12-05T00:56:41;102588.50;;;-3.16;100.00
59650;BME280;46162;57.568;25.814;2022-12-05T00:59:14;102588.66;;;-3.29;100.00
59650;BME280;46162;57.568;25.814;2022-12-05T01:01:44;102590.38;;;-3.26;100.00
59650;BME280;46162;57.568;25.814;2022-12-05T01:04:16;102589.38;;;-3.17;100.00
59650;BME280;46162;57.568;25.814;2022-12-05T01:06:45;102600.03;;;-3.27;100.00
59650;BME280;46162;57.568;25.814;2022-12-05T01:09:17;102597.47;;;-3.33;100.00
59650;BME280;46162;57.568;25.814;2022-12-05T01:11:46;102596.44;;;-3.19;100.00
59650;BME280;46162;57.568;25.814;2022-12-05T01:14:17;102600.91;;;-3.25;100.00
59650;BME280;46162;57.568;25.814;2022-12-05T01:16:48;102602.06;;;-3.50;100.00
59650;BME280;46162;57.568;25.814;2022-12-05T01:19:20;102601.09;;;-3.43;100.00
59650;BME280;46162;57.568;25.814;2022-12-05T01:21:49;102597.66;;;-3.51;100.00
59650;BME280;46162;57.568;25.814;2022-12-05T01:24:19;102601.97;;;-3.41;100.00
59650;BME280;46162;57.568;25.814;2022-12-05T01:26:48;102607.25;;;-3.44;100.00
59650;BME280;46162;57.568;25.814;2022-12-05T01:29:19;102608.84;;;-3.25;100.00
59650;BME280;46162;57.568;25.814;2022-12-05T01:31:48;102601.63;;;-3.09;100.00
59650;BME280;46162;57.568;25.814;2022-12-05T01:34:19;102607.25;;;-3.41;100.00
59650;BME280;46162;57.568;25.814;2022-12-05T01:36:48;102604.44;;;-3.26;100.00
59650;BME280;46162;57.568;25.814;2022-12-05T01:39:17;102602.72;;;-3.28;100.00
59650;BME280;46162;57.568;25.814;2022-12-05T01:41:49;102599.09;;;-3.18;100.00
59650;BME280;46162;57.568;25.814;2022-12-05T01:47:24;102603.66;;;-3.34;100.00
59650;BME280;46162;57.568;25.814;2022-12-05T01:49:56;102606.44;;;-3.46;100.00
59650;BME280;46162;57.568;25.814;2022-12-05T01:52:27;102613.25;;;-3.27;100.00
59650;BME280;46162;57.568;25.814;2022-12-05T01:55:00;102607.19;;;-3.35;100.00
59650;BME280;46162;57.568;25.814;2022-12-05T01:57:30;102603.66;;;-3.34;100.00
59650;BME280;46162;57.568;25.814;2022-12-05T02:00:03;102613.38;;;-3.39;100.00
59650;BME280;46162;57.568;25.814;2022-12-05T02:02:38;102609.00;;;-3.40;100.00
59650;BME280;46162;57.568;25.814;2022-12-05T02:05:12;102605.44;;;-3.36;100.00
59650;BME280;46162;57.568;25.814;2022-12-05T02:07:43;102609.69;;;-3.24;100.00
59650;BME280;46162;57.568;25.814;2022-12-05T02:10:13;102597.41;;;-3.25;100.00
59650;BME280;46162;57.568;25.814;2022-12-05T02:12:42;102596.69;;;-3.41;100.00
59650;BME280;46162;57.568;25.814;2022-12-05T02:15:20;102593.72;;;-3.12;100.00
59650;BME280;46162;57.568;25.814;2022-12-05T02:18:03;102595.53;;;-3.17;100.00
59650;BME280;46162;57.568;25.814;2022-12-05T02:20:46;102590.47;;;-3.35;100.00
59650;BME280;46162;57.568;25.814;2022-12-05T02:23:49;102589.75;;;-3.54;100.00
59650;BME280;46162;57.568;25.814;2022-12-05T02:26:38;102587.09;;;-3.48;100.00
59650;BME280;46162;57.568;25.814;2022-12-05T02:32:14;102584.28;;;-3.34;100.00
59650;BME280;46162;57.568;25.814;2022-12-05T02:34:51;102587.03;;;-3.45;100.00
59650;BME280;46162;57.568;25.814;2022-12-05T02:37:26;102579.84;;;-3.32;100.00
59650;BME280;46162;57.568;25.814;2022-12-05T02:40:02;102578.91;;;-3.27;100.00
59650;BME280;46162;57.568;25.814;2022-12-05T02:42:37;102588.78;;;-3.42;100.00
59650;BME280;46162;57.568;25.814;2022-12-05T02:45:11;102585.22;;;-3.38;100.00
59650;BME280;46162;57.568;25.814;2022-12-05T02:47:46;102578.03;;;-3.26;100.00
59650;BME280;46162;57.568;25.814;2022-12-05T02:50:18;102575.44;;;-3.32;100.00
59650;BME280;46162;57.568;25.814;2022-12-05T02:52:49;102563.16;;;-3.33;100.00
59650;BME280;46162;57.568;25.814;2022-12-05T02:55:21;102570.16;;;-3.29;100.00
59650;BME280;46162;57.568;25.814;2022-12-05T02:57:55;102573.53;;;-3.17;100.00
59650;BME280;46162;57.568;25.814;2022-12-05T03:00:25;102568.28;;;-3.20;100.00
59650;BME280;46162;57.568;25.814;2022-12-05T03:02:57;102559.44;;;-3.16;100.00
59650;BME280;46162;57.568;25.814;2022-12-05T03:05:32;102566.81;;;-3.46;100.00
59650;BME280;46162;57.568;25.814;2022-12-05T03:08:09;102560.63;;;-3.45;100.00
59650;BME280;46162;57.568;25.814;2022-12-05T03:10:42;102559.81;;;-3.50;100.00
59650;BME280;46162;57.568;25.814;2022-12-05T03:13:15;102559.84;;;-3.53;100.00
59650;BME280;46162;57.568;25.814;2022-12-05T03:15:48;102564.09;;;-3.40;100.00
59650;BME280;46162;57.568;25.814;2022-12-05T03:18:22;102558.03;;;-3.48;100.00
59650;BME280;46162;57.568;25.814;2022-12-05T03:20:54;102556.13;;;-3.37;100.00
59650;BME280;46162;57.568;25.814;2022-12-05T03:23:27;102551.06;;;-3.55;100.00
59650;BME280;46162;57.568;25.814;2022-12-05T03:26:04;102552.81;;;-3.54;100.00
59650;BME280;46162;57.568;25.814;2022-12-05T03:28:48;102551.81;;;-3.41;100.00
59650;BME280;46162;57.568;25.814;2022-12-05T03:31:38;102548.34;;;-3.49;100.00
59650;BME280;46162;57.568;25.814;2022-12-05T03:34:14;102550.16;;;-3.54;100.00
59650;BME280;46162;57.568;25.814;2022-12-05T03:36:48;102553.66;;;-3.54;100.00
59650;BME280;46162;57.568;25.814;2022-12-05T03:39:22;102553.44;;;-3.31;100.00
59650;BME280;46162;57.568;25.814;2022-12-05T03:41:57;102542.00;;;-3.33;100.00
59650;BME280;46162;57.568;25.814;2022-12-05T03:44:32;102540.41;;;-3.48;100.00
59650;BME280;46162;57.568;25.814;2022-12-05T03:47:05;102550.97;;;-3.49;100.00
59650;BME280;46162;57.568;25.814;2022-12-05T03:49:43;102548.25;;;-3.38;100.00
59650;BME280;46162;57.568;25.814;2022-12-05T03:52:17;102553.63;;;-3.49;100.00
59650;BME280;46162;57.568;25.814;2022-12-05T03:54:50;102560.69;;;-3.51;100.00
59650;BME280;46162;57.568;25.814;2022-12-05T03:57:22;102551.09;;;-3.60;100.00
59650;BME280;46162;57.568;25.814;2022-12-05T03:59:56;102561.78;;;-3.74;100.00
59650;BME280;46162;57.568;25.814;2022-12-05T04:02:32;102555.53;;;-3.60;100.00
59650;BME280;46162;57.568;25.814;2022-12-05T04:05:16;102558.97;;;-3.55;100.00
59650;BME280;46162;57.568;25.814;2022-12-05T04:07:49;102557.00;;;-3.35;100.00
59650;BME280;46162;57.568;25.814;2022-12-05T04:10:24;102558.00;;;-3.43;100.00
59650;BME280;46162;57.568;25.814;2022-12-05T04:12:58;102557.91;;;-3.37;100.00
59650;BME280;46162;57.568;25.814;2022-12-05T04:15:52;102556.84;;;-3.21;100.00
59650;BME280;46162;57.568;25.814;2022-12-05T04:18:48;102548.25;;;-3.41;100.00
59650;BME280;46162;57.568;25.814;2022-12-05T04:21:26;102555.41;;;-3.48;100.00
59650;BME280;46162;57.568;25.814;2022-12-05T04:24:11;102552.63;;;-3.37;100.00
59650;BME280;46162;57.568;25.814;2022-12-05T04:27:09;102545.81;;;-3.58;100.00
59650;BME280;46162;57.568;25.814;2022-12-05T04:29:44;102546.72;;;-3.62;100.00
59650;BME280;46162;57.568;25.814;2022-12-05T04:32:16;102542.41;;;-3.70;100.00
59650;BME280;46162;57.568;25.814;2022-12-05T04:34:52;102548.47;;;-3.60;100.00
59650;BME280;46162;57.568;25.814;2022-12-05T04:37:31;102540.47;;;-3.51;100.00
59650;BME280;46162;57.568;25.814;2022-12-05T04:40:06;102536.91;;;-3.51;100.00
59650;BME280;46162;57.568;25.814;2022-12-05T04:42:38;102540.19;;;-3.26;100.00
59650;BME280;46162;57.568;25.814;2022-12-05T04:45:11;102527.22;;;-3.49;100.00
59650;BME280;46162;57.568;25.814;2022-12-05T04:47:41;102539.44;;;-3.39;100.00
59650;BME280;46162;57.568;25.814;2022-12-05T04:50:13;102538.59;;;-3.44;100.00
59650;BME280;46162;57.568;25.814;2022-12-05T04:52:48;102536.03;;;-3.50;100.00
59650;BME280;46162;57.568;25.814;2022-12-05T04:55:21;102543.09;;;-3.54;100.00
59650;BME280;46162;57.568;25.814;2022-12-05T04:57:56;102543.97;;;-3.52;100.00
59650;BME280;46162;57.568;25.814;2022-12-05T05:00:29;102535.31;;;-3.63;100.00
59650;BME280;46162;57.568;25.814;2022-12-05T05:03:03;102537.56;;;-3.28;100.00
59650;BME280;46162;57.568;25.814;2022-12-05T05:05:34;102535.81;;;-3.29;100.00
59650;BME280;46162;57.568;25.814;2022-12-05T05:08:15;102533.13;;;-3.27;100.00
59650;BME280;46162;57.568;25.814;2022-12-05T05:10:53;102536.78;;;-3.39;100.00
59650;BME280;46162;57.568;25.814;2022-12-05T05:13:24;102533.03;;;-3.16;100.00
59650;BME280;46162;57.568;25.814;2022-12-05T05:15:53;102532.13;;;-3.17;100.00
59650;BME280;46162;57.568;25.814;2022-12-05T05:18:22;102522.56;;;-3.26;100.00
59650;BME280;46162;57.568;25.814;2022-12-05T05:20:55;102529.63;;;-3.28;100.00
59650;BME280;46162;57.568;25.814;2022-12-05T05:23:25;102522.66;;;-3.35;100.00
59650;BME280;46162;57.568;25.814;2022-12-05T05:25:55;102522.75;;;-3.41;100.00
59650;BME280;46162;57.568;25.814;2022-12-05T05:28:23;102519.63;;;-3.78;100.00
59650;BME280;46162;57.568;25.814;2022-12-05T05:30:52;102517.53;;;-3.47;100.00
59650;BME280;46162;57.568;25.814;2022-12-05T05:33:21;102520.22;;;-3.52;100.00
59650;BME280;46162;57.568;25.814;2022-12-05T05:35:50;102515.84;;;-3.54;100.00
59650;BME280;46162;57.568;25.814;2022-12-05T05:38:19;102517.56;;;-3.52;100.00
59650;BME280;46162;57.568;25.814;2022-12-05T05:40:49;102524.56;;;-3.48;100.00
59650;BME280;46162;57.568;25.814;2022-12-05T05:43:18;102521.03;;;-3.45;100.00
59650;BME280;46162;57.568;25.814;2022-12-05T05:45:47;102520.34;;;-3.64;100.00
59650;BME280;46162;57.568;25.814;2022-12-05T05:48:16;102524.00;;;-3.76;100.00
59650;BME280;46162;57.568;25.814;2022-12-05T05:50:45;102526.66;;;-3.79;100.00
59650;BME280;46162;57.568;25.814;2022-12-05T05:53:17;102519.56;;;-3.74;100.00
59650;BME280;46162;57.568;25.814;2022-12-05T05:55:49;102523.94;;;-3.70;100.00
59650;BME280;46162;57.568;25.814;2022-12-05T05:58:18;102519.47;;;-3.64;100.00
59650;BME280;46162;57.568;25.814;2022-12-05T06:00:47;102518.72;;;-3.76;100.00
59650;BME280;46162;57.568;25.814;2022-12-05T06:03:16;102523.09;;;-3.73;100.00
59650;BME280;46162;57.568;25.814;2022-12-05T06:05:55;102531.00;;;-3.73;100.00
59650;BME280;46162;57.568;25.814;2022-12-05T06:08:25;102519.75;;;-3.92;100.00
59650;BME280;46162;57.568;25.814;2022-12-05T06:11:06;102520.50;;;-3.78;100.00
59650;BME280;46162;57.568;25.814;2022-12-05T06:13:35;102521.41;;;-3.82;100.00
59650;BME280;46162;57.568;25.814;2022-12-05T06:16:05;102529.28;;;-3.79;100.00
59650;BME280;46162;57.568;25.814;2022-12-05T06:18:35;102523.81;;;-3.59;100.00
59650;BME280;46162;57.568;25.814;2022-12-05T06:21:08;102523.78;;;-3.56;100.00
59650;BME280;46162;57.568;25.814;2022-12-05T06:23:42;102514.16;;;-3.61;100.00
59650;BME280;46162;57.568;25.814;2022-12-05T06:26:15;102521.38;;;-3.77;100.00
59650;BME280;46162;57.568;25.814;2022-12-05T06:28:45;102524.09;;;-3.86;100.00
59650;BME280;46162;57.568;25.814;2022-12-05T06:31:16;102517.97;;;-3.90;100.00
59650;BME280;46162;57.568;25.814;2022-12-05T06:33:46;102510.94;;;-3.88;100.00
59650;BME280;46162;57.568;25.814;2022-12-05T06:36:17;102518.72;;;-3.77;100.00
59650;BME280;46162;57.568;25.814;2022-12-05T06:38:47;102522.28;;;-3.81;100.00
59650;BME280;46162;57.568;25.814;2022-12-05T06:41:19;102519.66;;;-3.83;100.00
59650;BME280;46162;57.568;25.814;2022-12-05T06:43:51;102518.88;;;-3.93;100.00
59650;BME280;46162;57.568;25.814;2022-12-05T06:46:27;102518.88;;;-3.93;100.00
59650;BME280;46162;57.568;25.814;2022-12-05T06:48:57;102515.22;;;-3.78;100.00
59650;BME280;46162;57.568;25.814;2022-12-05T06:51:27;102516.91;;;-3.74;100.00
59650;BME280;46162;57.568;25.814;2022-12-05T06:53:57;102524.88;;;-3.77;100.00
59650;BME280;46162;57.568;25.814;2022-12-05T06:56:29;102518.66;;;-3.71;100.00
59650;BME280;46162;57.568;25.814;2022-12-05T06:59:01;102522.09;;;-3.64;100.00
59650;BME280;46162;57.568;25.814;2022-12-05T07:01:30;102515.00;;;-3.58;100.00
59650;BME280;46162;57.568;25.814;2022-12-05T07:04:15;102509.94;;;-3.81;100.00
59650;BME280;46162;57.568;25.814;2022-12-05T07:06:47;102514.28;;;-3.74;100.00
59650;BME280;46162;57.568;25.814;2022-12-05T07:09:20;102509.03;;;-3.77;100.00
59650;BME280;46162;57.568;25.814;2022-12-05T07:12:19;102512.41;;;-3.62;100.00
59650;BME280;46162;57.568;25.814;2022-12-05T07:14:51;102511.47;;;-3.57;100.00
59650;BME280;46162;57.568;25.814;2022-12-05T07:17:20;102506.34;;;-3.71;100.00
59650;BME280;46162;57.568;25.814;2022-12-05T07:19:51;102516.03;;;-3.74;100.00
59650;BME280;46162;57.568;25.814;2022-12-05T07:22:21;102509.03;;;-3.77;100.00
59650;BME280;46162;57.568;25.814;2022-12-05T07:24:51;102504.50;;;-3.62;100.00
59650;BME280;46162;57.568;25.814;2022-12-05T07:27:21;102504.75;;;-3.89;100.00
59650;BME280;46162;57.568;25.814;2022-12-05T07:29:54;102505.66;;;-3.88;100.00
59650;BME280;46162;57.568;25.814;2022-12-05T07:32:24;102500.44;;;-3.99;100.00
59650;BME280;46162;57.568;25.814;2022-12-05T07:34:53;102500.41;;;-3.93;100.00
59650;BME280;46162;57.568;25.814;2022-12-05T07:37:22;102500.44;;;-3.97;100.00
59650;BME280;46162;57.568;25.814;2022-12-05T07:39:51;102495.22;;;-4.03;100.00
59650;BME280;46162;57.568;25.814;2022-12-05T07:42:21;102496.94;;;-4.01;100.00
59650;BME280;46162;57.568;25.814;2022-12-05T07:44:50;102498.00;;;-4.17;100.00
59650;BME280;46162;57.568;25.814;2022-12-05T07:47:19;102504.97;;;-4.10;100.00
59650;BME280;46162;57.568;25.814;2022-12-05T07:49:48;102499.72;;;-4.16;100.00
59650;BME280;46162;57.568;25.814;2022-12-05T07:52:17;102507.53;;;-4.02;100.00
59650;BME280;46162;57.568;25.814;2022-12-05T07:54:46;102495.28;;;-4.09;100.00
59650;BME280;46162;57.568;25.814;2022-12-05T07:57:15;102497.09;;;-4.16;100.00
59650;BME280;46162;57.568;25.814;2022-12-05T07:59:46;102496.06;;;-4.00;100.00
59650;BME280;46162;57.568;25.814;2022-12-05T08:02:19;102501.38;;;-4.03;100.00
59650;BME280;46162;57.568;25.814;2022-12-05T08:04:48;102504.06;;;-4.07;100.00
59650;BME280;46162;57.568;25.814;2022-12-05T08:07:17;102502.06;;;-3.82;100.00
59650;BME280;46162;57.568;25.814;2022-12-05T08:09:46;102502.94;;;-3.80;100.00
59650;BME280;46162;57.568;25.814;2022-12-05T08:12:15;102506.44;;;-3.78;100.00
59650;BME280;46162;57.568;25.814;2022-12-05T08:14:43;102503.97;;;-3.97;100.00
59650;BME280;46162;57.568;25.814;2022-12-05T08:17:14;102511.91;;;-4.00;100.00
59650;BME280;46162;57.568;25.814;2022-12-05T08:19:45;102506.63;;;-4.01;100.00
59650;BME280;46162;57.568;25.814;2022-12-05T08:22:15;102504.06;;;-4.07;100.00
59650;BME280;46162;57.568;25.814;2022-12-05T08:24:43;102501.47;;;-4.12;100.00
59650;BME280;46162;57.568;25.814;2022-12-05T08:27:20;102502.22;;;-3.99;100.00
59650;BME280;46162;57.568;25.814;2022-12-05T08:29:49;102506.63;;;-4.01;100.00
59650;BME280;46162;57.568;25.814;2022-12-05T08:32:20;102502.34;;;-4.12;100.00
59650;BME280;46162;57.568;25.814;2022-12-05T08:34:50;102505.75;;;-4.00;100.00
59650;BME280;46162;57.568;25.814;2022-12-05T08:37:20;102502.13;;;-3.90;100.00
59650;BME280;46162;57.568;25.814;2022-12-05T08:39:49;102499.47;;;-3.87;100.00
59650;BME280;46162;57.568;25.814;2022-12-05T08:42:18;102496.75;;;-3.78;100.00
59650;BME280;46162;57.568;25.814;2022-12-05T08:44:48;102494.09;;;-3.78;100.00
59650;BME280;46162;57.568;25.814;2022-12-05T08:47:18;102491.63;;;-3.96;100.00
59650;BME280;46162;57.568;25.814;2022-12-05T08:49:47;102495.13;;;-3.94;100.00
59650;BME280;46162;57.568;25.814;2022-12-05T08:52:16;102494.19;;;-3.85;100.00
59650;BME280;46162;57.568;25.814;2022-12-05T08:54:45;102491.69;;;-4.02;100.00
59650;BME280;46162;57.568;25.814;2022-12-05T08:57:14;102493.34;;;-3.91;100.00
59650;BME280;46162;57.568;25.814;2022-12-05T08:59:43;102486.31;;;-3.92;100.00
59650;BME280;46162;57.568;25.814;2022-12-05T09:02:12;102488.19;;;-4.03;100.00
59650;BME280;46162;57.568;25.814;2022-12-05T09:04:42;102484.56;;;-3.93;100.00
59650;BME280;46162;57.568;25.814;2022-12-05T09:07:21;102483.72;;;-3.95;100.00
59650;BME280;46162;57.568;25.814;2022-12-05T09:09:54;102475.84;;;-3.99;100.00
59650;BME280;46162;57.568;25.814;2022-12-05T09:12:24;102473.06;;;-3.85;100.00
59650;BME280;46162;57.568;25.814;2022-12-05T09:14:53;102468.66;;;-3.85;100.00
59650;BME280;46162;57.568;25.814;2022-12-05T09:17:23;102465.97;;;-3.80;100.00
59650;BME280;46162;57.568;25.814;2022-12-05T09:19:53;102466.81;;;-3.77;100.00
59650;BME280;46162;57.568;25.814;2022-12-05T09:22:22;102474.22;;;-4.16;100.00
59650;BME280;46162;57.568;25.814;2022-12-05T09:24:51;102460.91;;;-4.03;100.00
59650;BME280;46162;57.568;25.814;2022-12-05T09:27:20;102453.81;;;-3.95;100.00
59650;BME280;46162;57.568;25.814;2022-12-05T09:29:49;102464.50;;;-4.07;100.00
59650;BME280;46162;57.568;25.814;2022-12-05T09:32:18;102452.97;;;-3.97;100.00
59650;BME280;46162;57.568;25.814;2022-12-05T09:34:46;102457.53;;;-4.16;100.00
59650;BME280;46162;57.568;25.814;2022-12-05T09:37:17;102454.03;;;-4.15;100.00
59650;BME280;46162;57.568;25.814;2022-12-05T09:40:05;102456.88;;;-4.41;100.00
59650;BME280;46162;57.568;25.814;2022-12-05T09:42:52;102457.53;;;-4.16;100.00
59650;BME280;46162;57.568;25.814;2022-12-05T09:45:28;102455.94;;;-4.33;100.00
59650;BME280;46162;57.568;25.814;2022-12-05T09:48:06;102453.25;;;-4.31;100.00
59650;BME280;46162;57.568;25.814;2022-12-05T09:50:43;102451.50;;;-4.29;100.00
59650;BME280;46162;57.568;25.814;2022-12-05T09:53:23;102443.75;;;-4.50;100.00
59650;BME280;46162;57.568;25.814;2022-12-05T09:56:02;102435.72;;;-4.34;100.00
59650;BME280;46162;57.568;25.814;2022-12-05T09:58:41;102433.06;;;-4.34;100.00
59650;BME280;46162;57.568;25.814;2022-12-05T10:01:25;102435.56;;;-4.17;100.00
59650;BME280;46162;57.568;25.814;2022-12-05T10:04:20;102426.81;;;-4.23;100.00
59650;BME280;46162;57.568;25.814;2022-12-05T10:06:58;102423.31;;;-4.24;100.00
59650;BME280;46162;57.568;25.814;2022-12-05T10:09:47;102425.72;;;-4.01;100.00
59650;BME280;46162;57.568;25.814;2022-12-05T10:12:45;102411.72;;;-4.07;100.00
59650;BME280;46162;57.568;25.814;2022-12-05T10:15:22;102406.59;;;-4.21;100.00
59650;BME280;46162;57.568;25.814;2022-12-05T10:17:59;102401.28;;;-4.18;100.00
59650;BME280;46162;57.568;25.814;2022-12-05T10:20:33;102400.50;;;-4.26;100.00
59650;BME280;46162;57.568;25.814;2022-12-05T10:23:05;102392.69;;;-4.39;100.00
59650;BME280;46162;57.568;25.814;2022-12-05T10:26:03;102395.41;;;-4.48;100.00
59650;BME280;46162;57.568;25.814;2022-12-05T10:28:35;102396.97;;;-4.27;100.00
59650;BME280;46162;57.568;25.814;2022-12-05T10:31:08;102395.25;;;-4.29;100.00
59650;BME280;46162;57.568;25.814;2022-12-05T10:33:45;102398.63;;;-4.17;100.00
59650;BME280;46162;57.568;25.814;2022-12-05T10:36:15;102400.28;;;-4.06;100.00
59650;BME280;46162;57.568;25.814;2022-12-05T10:38:44;102397.94;;;-4.34;100.00
59650;BME280;46162;57.568;25.814;2022-12-05T10:41:15;102392.38;;;-4.08;100.00
59650;BME280;46162;57.568;25.814;2022-12-05T10:43:44;102381.16;;;-4.27;100.00
59650;BME280;46162;57.568;25.814;2022-12-05T10:46:16;102388.03;;;-4.14;100.00
59650;BME280;46162;57.568;25.814;2022-12-05T10:48:46;102387.09;;;-4.08;100.00
59650;BME280;46162;57.568;25.814;2022-12-05T10:51:19;102385.31;;;-4.03;100.00
59650;BME280;46162;57.568;25.814;2022-12-05T10:53:51;102385.28;;;-4.01;100.00
59650;BME280;46162;57.568;25.814;2022-12-05T10:56:41;102376.56;;;-4.09;100.00
59650;BME280;46162;57.568;25.814;2022-12-05T10:59:12;102379.47;;;-4.33;100.00
59650;BME280;46162;57.568;25.814;2022-12-05T11:01:45;102381.81;;;-4.08;100.00
59650;BME280;46162;57.568;25.814;2022-12-05T11:04:21;102375.72;;;-4.12;100.00
59650;BME280;46162;57.568;25.814;2022-12-05T11:06:56;102367.03;;;-4.21;100.00
59650;BME280;46162;57.568;25.814;2022-12-05T11:09:30;102368.47;;;-3.94;100.00
59650;BME280;46162;57.568;25.814;2022-12-05T11:12:05;102362.63;;;-4.21;100.00
59650;BME280;46162;57.568;25.814;2022-12-05T11:15:01;102359.75;;;-4.01;100.00
59650;BME280;46162;57.568;25.814;2022-12-05T11:17:35;102366.88;;;-4.07;100.00
59650;BME280;46162;57.568;25.814;2022-12-05T11:22:57;102370.66;;;-4.32;100.00
59650;BME280;46162;57.568;25.814;2022-12-05T11:25:43;102366.94;;;-4.14;100.00
59650;BME280;46162;57.568;25.814;2022-12-05T11:28:35;102368.97;;;-4.37;100.00
59650;BME280;46162;57.568;25.814;2022-12-05T11:31:16;102357.47;;;-4.30;100.00
59650;BME280;46162;57.568;25.814;2022-12-05T11:34:00;102359.94;;;-4.15;100.00
59650;BME280;46162;57.568;25.814;2022-12-05T11:36:38;102362.69;;;-4.28;100.00
59650;BME280;46162;57.568;25.814;2022-12-05T11:39:10;102361.84;;;-4.27;100.00
59650;BME280;46162;57.568;25.814;2022-12-05T11:42:00;102355.91;;;-4.53;100.00
59650;BME280;46162;57.568;25.814;2022-12-05T11:44:48;102349.84;;;-4.61;100.00
59650;BME280;46162;57.568;25.814;2022-12-05T11:47:35;102354.22;;;-4.57;100.00
59650;BME280;46162;57.568;25.814;2022-12-05T11:50:17;102347.25;;;-4.65;100.00
59650;BME280;46162;57.568;25.814;2022-12-05T11:52:56;102341.09;;;-4.66;100.00
59650;BME280;46162;57.568;25.814;2022-12-05T11:55:31;102332.31;;;-4.65;100.00
59650;BME280;46162;57.568;25.814;2022-12-05T11:58:27;102326.16;;;-4.62;100.00
59650;BME280;46162;57.568;25.814;2022-12-05T12:01:09;102318.22;;;-4.61;100.00
59650;BME280;46162;57.568;25.814;2022-12-05T12:04:01;102324.47;;;-4.72;100.00
59650;BME280;46162;57.568;25.814;2022-12-05T12:06:47;102329.84;;;-4.83;100.00
59650;BME280;46162;57.568;25.814;2022-12-05T12:09:33;102334.97;;;-4.66;100.00
59650;BME280;46162;57.568;25.814;2022-12-05T12:12:12;102332.44;;;-4.79;100.00
59650;BME280;46162;57.568;25.814;2022-12-05T12:14:50;102327.22;;;-4.83;100.00
59650;BME280;46162;57.568;25.814;2022-12-05T12:17:33;102320.94;;;-4.70;100.00
59650;BME280;46162;57.568;25.814;2022-12-05T12:20:30;102306.09;;;-4.77;100.00
59650;BME280;46162;57.568;25.814;2022-12-05T12:23:17;102313.25;;;-4.91;100.00
59650;BME280;46162;57.568;25.814;2022-12-05T12:26:02;102305.31;;;-4.90;100.00
59650;BME280;46162;57.568;25.814;2022-12-05T12:28:41;102313.19;;;-4.88;100.00
59650;BME280;46162;57.568;25.814;2022-12-05T12:31:34;102319.47;;;-5.03;100.00
59650;BME280;46162;57.568;25.814;2022-12-05T12:34:31;102311.44;;;-4.86;100.00
59650;BME280;46162;57.568;25.814;2022-12-05T12:37:12;102305.16;;;-4.71;100.00
59650;BME280;46162;57.568;25.814;2022-12-05T12:39:50;102293.97;;;-5.00;100.00
59650;BME280;46162;57.568;25.814;2022-12-05T12:42:23;102292.13;;;-4.88;100.00
59650;BME280;46162;57.568;25.814;2022-12-05T12:45:19;102288.69;;;-5.00;100.00
59650;BME280;46162;57.568;25.814;2022-12-05T12:48:03;102286.19;;;-5.13;100.00
59650;BME280;46162;57.568;25.814;2022-12-05T12:50:40;102287.91;;;-5.06;100.00
59650;BME280;46162;57.568;25.814;2022-12-05T12:53:26;102281.69;;;-4.99;100.00
59650;BME280;46162;57.568;25.814;2022-12-05T12:56:03;102270.25;;;-5.00;100.00
59650;BME280;46162;57.568;25.814;2022-12-05T12:58:45;102265.09;;;-5.09;100.00
59650;BME280;46162;57.568;25.814;2022-12-05T13:01:26;102270.22;;;-4.95;100.00
59650;BME280;46162;57.568;25.814;2022-12-05T13:04:00;102267.81;;;-5.20;100.00
59650;BME280;46162;57.568;25.814;2022-12-05T13:06:36;102273.06;;;-5.20;100.00
59650;BME280;46162;57.568;25.814;2022-12-05T13:09:13;102272.31;;;-5.37;100.00
59650;BME280;46162;57.568;25.814;2022-12-05T13:11:45;102272.53;;;-5.65;100.00
59650;BME280;46162;57.568;25.814;2022-12-05T13:14:18;102268.00;;;-5.43;100.00
59650;BME280;46162;57.568;25.814;2022-12-05T13:16:51;102261.06;;;-5.51;100.00